Hlavní strana
METAR-TAF:

METAR-TAF

Letiště :

Kuusamo, Finsko

zeměpisná šířka: 65-58N, zeměpisná délka: 029-11E, výška: 262 m

Aktuální stav počasí

Zpráva byla vytvořena před 14 minutami, v 09:50 UTC
Severoseverozápadní vítr 10 kt, proměnlivý mezi západoseverozápadním a severním
Teplota 12°C
Vlhkost vzduchu 40%
Tlak 1029 hPa
Viditelnost 10 km a více
Skoro jasno ve výšce 4700 ft

METAR: EFKS 300950Z AUTO 34010KT 300V010 9999 FEW047 12/M01 Q1029

Čas: 13:04 (10:04 UTC)


TAF: chybějící

Stav a předpovědi počasí z více než 4 000 letišť (zprávy METAR a TAF).

Červené a žluté tečky na mapě představují dostupné meteorologické stanice.

Když kurzor umístíte na tečku, zobrazí se název stanice.

Pak kliknutím zobrazíte stav a předpověď počasí.

Chcete-li změnit mapu, kliknutím na zelené tlačítko se znaménkem +mapu přiblížíte, kliknutím na zelené tlačítko se znaménkem – mapu oddálíte a kliknutím na zelené šipky přejdete na sousední mapy.


METAR-TAF: